Time,TemperatureF,DewpointF,PressureIn,WindDirection,WindDirectionDegrees,WindSpeedMPH,WindSpeedGustMPH,Humidity,HourlyPrecipIn,Conditions,Clouds,dailyrainin,SoftwareType,DateUTC
2013-02-07 00:21:00,18.0,6.0,30.29,North,-999,0.0,0.0,59,0.00,,,-99.99,,2013-02-07 08:21:00,
2013-02-07 00:32:00,18.0,6.0,30.29,North,-999,0.0,0.0,59,0.00,,,-99.99,,2013-02-07 08:32:00,
2013-02-07 00:42:00,18.0,6.0,30.29,North,-999,0.0,0.0,59,0.00,,,-99.99,,2013-02-07 08:42:00,
2013-02-07 01:21:00,17.0,6.0,30.27,North,0,0.0,2.0,62,0.00,,,-99.99,,2013-02-07 09:21:00,
2013-02-07 01:31:00,17.0,6.0,30.27,North,0,0.0,2.0,62,0.00,,,-99.99,,2013-02-07 09:31:00,
2013-02-07 01:41:00,17.0,6.0,30.27,North,0,0.0,2.0,62,0.00,,,-99.99,,2013-02-07 09:41:00,
2013-02-07 02:22:00,16.0,6.0,30.28,North,-999,0.0,0.0,64,0.00,,,-99.99,,2013-02-07 10:22:00,
2013-02-07 02:32:00,16.0,6.0,30.28,North,-999,0.0,0.0,64,0.00,,,-99.99,,2013-02-07 10:32:00,
2013-02-07 03:22:00,15.0,5.0,30.29,North,0,0.0,1.0,64,0.00,,,-99.99,,2013-02-07 11:22:00,
2013-02-07 03:32:00,15.0,5.0,30.29,North,0,0.0,1.0,64,0.00,,,-99.99,,2013-02-07 11:32:00,
2013-02-07 04:22:00,14.0,4.0,30.29,North,-999,0.0,0.0,64,0.00,,,-99.99,,2013-02-07 12:22:00,
2013-02-07 04:32:00,14.0,4.0,30.29,North,-999,0.0,0.0,64,0.00,,,-99.99,,2013-02-07 12:32:00,
2013-02-07 05:22:00,14.0,4.0,30.36,North,-999,0.0,0.0,65,0.00,,,-99.99,,2013-02-07 13:22:00,
2013-02-07 05:32:00,14.0,4.0,30.36,North,-999,0.0,0.0,65,0.00,,,-99.99,,2013-02-07 13:32:00,
2013-02-07 06:21:00,13.0,4.0,30.43,North,-999,0.0,0.0,66,0.00,,,-99.99,,2013-02-07 14:21:00,
2013-02-07 06:32:00,13.0,4.0,30.43,North,-999,0.0,0.0,66,0.00,,,-99.99,,2013-02-07 14:32:00,
2013-02-07 07:22:00,14.0,5.0,30.45,North,0,0.0,1.0,67,0.00,,,-99.99,,2013-02-07 15:22:00,
2013-02-07 07:32:00,14.0,5.0,30.45,North,0,0.0,1.0,67,0.00,,,-99.99,,2013-02-07 15:32:00,
2013-02-07 08:21:00,19.0,8.0,30.42,North,360,1.0,2.0,62,0.00,,,-99.99,,2013-02-07 16:21:00,
2013-02-07 08:31:00,19.0,8.0,30.42,North,360,1.0,2.0,62,0.00,,,-99.99,,2013-02-07 16:31:00,
2013-02-07 09:21:00,31.0,16.0,30.34,North,-999,0.0,0.0,53,0.00,,,-99.99,,2013-02-07 17:21:00,
2013-02-07 09:31:00,31.0,16.0,30.34,North,-999,0.0,0.0,53,0.00,,,-99.99,,2013-02-07 17:31:00,
2013-02-07 10:23:00,48.0,-6.0,30.22,West,270,2.0,11.0,10,0.00,,,-99.99,,2013-02-07 18:23:00,
2013-02-07 10:31:00,48.0,-6.0,30.22,West,270,2.0,11.0,10,0.00,,,-99.99,,2013-02-07 18:31:00,
2013-02-07 10:41:00,48.0,-6.0,30.22,West,270,2.0,11.0,10,0.00,,,-99.99,,2013-02-07 18:41:00,
2013-02-07 11:22:00,49.0,-3.0,30.22,WNW,290,5.0,16.0,11,0.00,,,-99.99,,2013-02-07 19:22:00,
2013-02-07 11:31:00,49.0,-3.0,30.22,WNW,290,5.0,16.0,11,0.00,,,-99.99,,2013-02-07 19:31:00,
2013-02-07 11:41:00,49.0,-3.0,30.22,WNW,290,5.0,16.0,11,0.00,,,-99.99,,2013-02-07 19:41:00,
2013-02-07 12:21:00,49.0,0.0,30.20,WNW,300,6.0,14.0,13,0.00,,,-99.99,,2013-02-07 20:21:00,
2013-02-07 12:31:00,49.0,0.0,30.20,WNW,300,6.0,14.0,13,0.00,,,-99.99,,2013-02-07 20:31:00,
2013-02-07 12:41:00,49.0,0.0,30.20,WNW,300,6.0,14.0,13,0.00,,,-99.99,,2013-02-07 20:41:00,
2013-02-07 13:21:00,50.0,6.0,30.15,West,260,4.0,10.0,16,0.00,,,-99.99,,2013-02-07 21:21:00,
2013-02-07 13:31:00,50.0,6.0,30.15,West,260,4.0,10.0,16,0.00,,,-99.99,,2013-02-07 21:31:00,
2013-02-07 13:42:00,50.0,6.0,30.15,West,260,4.0,10.0,16,0.00,,,-99.99,,2013-02-07 21:42:00,
2013-02-07 14:21:00,49.0,7.0,30.15,West,280,6.0,14.0,18,0.00,,,-99.99,,2013-02-07 22:21:00,
2013-02-07 14:31:00,49.0,7.0,30.15,West,280,6.0,14.0,18,0.00,,,-99.99,,2013-02-07 22:31:00,
2013-02-07 14:42:00,49.0,7.0,30.15,West,280,6.0,14.0,18,0.00,,,-99.99,,2013-02-07 22:42:00,
2013-02-07 15:21:00,47.0,15.0,30.16,WSW,250,7.0,16.0,27,0.00,,,-99.99,,2013-02-07 23:21:00,
2013-02-07 15:32:00,47.0,15.0,30.16,WSW,250,7.0,16.0,27,0.00,,,-99.99,,2013-02-07 23:32:00,
2013-02-07 15:41:00,47.0,15.0,30.16,WSW,250,7.0,16.0,27,0.00,,,-99.99,,2013-02-07 23:41:00,
2013-02-07 16:21:00,45.0,18.0,30.15,West,270,4.0,11.0,33,0.00,,,-99.99,,2013-02-08 00:21:00,
2013-02-07 16:31:00,45.0,18.0,30.15,West,270,4.0,11.0,33,0.00,,,-99.99,,2013-02-08 00:31:00,
2013-02-07 16:41:00,45.0,18.0,30.15,West,270,4.0,11.0,33,0.00,,,-99.99,,2013-02-08 00:41:00,
2013-02-07 17:21:00,42.0,18.0,30.14,NNW,330,6.0,12.0,37,0.00,,,-99.99,,2013-02-08 01:21:00,
2013-02-07 17:31:00,42.0,18.0,30.14,NNW,330,6.0,12.0,37,0.00,,,-99.99,,2013-02-08 01:31:00,
2013-02-07 17:41:00,42.0,18.0,30.14,NNW,330,6.0,12.0,37,0.00,,,-99.99,,2013-02-08 01:41:00,
2013-02-07 18:21:00,38.0,18.0,30.17,NW,310,4.0,8.0,44,0.00,,,-99.99,,2013-02-08 02:21:00,
2013-02-07 18:31:00,38.0,18.0,30.17,NW,310,4.0,8.0,44,0.00,,,-99.99,,2013-02-08 02:31:00,
2013-02-07 18:42:00,38.0,18.0,30.17,NW,310,4.0,8.0,44,0.00,,,-99.99,,2013-02-08 02:42:00,
2013-02-07 19:22:00,36.0,18.0,30.14,North,360,1.0,6.0,47,0.00,,,-99.99,,2013-02-08 03:22:00,
2013-02-07 19:32:00,36.0,18.0,30.14,North,360,1.0,6.0,47,0.00,,,-99.99,,2013-02-08 03:32:00,
2013-02-07 19:41:00,36.0,18.0,30.14,North,360,1.0,6.0,47,0.00,,,-99.99,,2013-02-08 03:41:00,
2013-02-07 20:21:00,36.0,8.0,30.03,SSW,210,5.0,14.0,30,0.00,,,-99.99,,2013-02-08 04:21:00,
2013-02-07 20:32:00,36.0,8.0,30.03,SSW,210,5.0,14.0,30,0.00,,,-99.99,,2013-02-08 04:32:00,
2013-02-07 21:22:00,34.0,12.0,29.89,SW,220,5.0,16.0,40,0.00,,,-99.99,,2013-02-08 05:22:00,
2013-02-07 21:31:00,34.0,12.0,29.89,SW,220,5.0,16.0,40,0.00,,,-99.99,,2013-02-08 05:31:00,
2013-02-07 21:41:00,34.0,12.0,29.89,SW,220,5.0,16.0,40,0.00,,,-99.99,,2013-02-08 05:41:00,
2013-02-07 22:21:00,35.0,4.0,29.83,West,260,10.0,25.0,27,0.00,,,-99.99,,2013-02-08 06:21:00,
2013-02-07 22:31:00,35.0,4.0,29.83,West,260,10.0,25.0,27,0.00,,,-99.99,,2013-02-08 06:31:00,
2013-02-07 22:41:00,35.0,4.0,29.83,West,260,10.0,25.0,27,0.00,,,-99.99,,2013-02-08 06:41:00,
2013-02-07 23:21:00,29.0,18.0,29.85,West,280,8.0,18.0,63,0.00,,,-99.99,,2013-02-08 07:21:00,
2013-02-07 23:31:00,29.0,18.0,29.85,West,280,8.0,18.0,63,0.00,,,-99.99,,2013-02-08 07:31:00,
2013-02-07 23:42:00,29.0,18.0,29.85,West,280,8.0,18.0,63,0.00,,,-99.99,,2013-02-08 07:42:00,